Tugela — 9HA2292 — position and weather

sailwx.info

Track history (hours):
 
Tides and Currents Weather Stations Pressure Air Temp Water Temp Dewpoint Dewpoint Depression Visibility Wind Speed Wind Dir Waves Ship Positions

Tugela

Last reported at 2018-Jan-11 14:57 UTC. Time now 2018-Jan-21 12:44 UTC.
Position N 27°41' W 015°11'.
Warning: this ship's position is 9 days out of date.

Length 229 m; draft 10.9 m.

Type: Cargo ship. MMSI: 248264000.

Date/timePositionNaut miles runAvg speedWind from/ knotsBaromVisibWave heightAir tempDewpointWater temp
2018-Jan-11 14:57N 27°41' W 015°11'818.3
2018-Jan-11 14:30N 27°48' W 015°08'918.4
2018-Jan-11 14:00N 27°57' W 015°04'918.3
2018-Jan-11 13:30N 28°05' W 015°00'918.0
2018-Jan-11 13:00N 28°14' W 014°58'918.2
2018-Jan-11 12:30N 28°23' W 014°55'918.1
2018-Jan-11 12:00N 28°31' W 014°52'918.3
2018-Jan-11 11:30N 28°40' W 014°48'1218.0
2018-Jan-11 10:52N 28°51' W 014°44'8 6.9
2018-Jan-11 09:46N 28°58' W 014°43'711.7
2018-Jan-11 09:12N 29°05' W 014°42'1117.8
2018-Jan-11 08:33N 29°16' W 014°39'417.4
2018-Jan-11 08:19N 29°20' W 014°37'1817.9
2018-Jan-11 07:18N 29°38' W 014°32'  
2018-Jan-08 20:25N 43°49' W 005°54'817.9
2018-Jan-08 19:56N 43°48' W 005°43'917.9
2018-Jan-08 19:27N 43°47' W 005°31'917.9
2018-Jan-08 18:55N 43°46' W 005°18'1017.6
2018-Jan-08 18:23N 43°45' W 005°04'717.6
2018-Jan-08 18:00N 43°44' W 004°55'4117.1
2018-Jan-08 15:38N 43°39' W 003°59'217.4
2018-Jan-08 15:30N 43°38' W 003°57'10 0.6
2018-Jan-07 22:03N 43°33' W 003°46'0 7.5
2018-Jan-07 22:01N 43°33' W 003°46'4 7.3
2018-Jan-07 21:30N 43°36' W 003°48'7 4.1
2018-Jan-07 19:41N 43°44' W 003°49'36110.5
2018-Jan-06 09:16N 49°44' W 003°36'615.6
2018-Jan-06 08:52N 49°47' W 003°28'615.6
2018-Jan-06 08:31N 49°51' W 003°21'815.6
2018-Jan-06 08:00N 49°55' W 003°11'815.9
2018-Jan-06 07:31N 49°58' W 002°60'816.6
2018-Jan-06 07:00N 50°01' W 002°47'816.7
2018-Jan-06 06:30N 50°04' W 002°35'6217.6
2018-Jan-06 02:59N 50°21' W 001°02'2317.2
2018-Jan-06 01:38N 50°26' W 000°26'217.2
2018-Jan-06 01:30N 50°27' W 000°23'917.1
2018-Jan-06 01:00N 50°29' W 000°10'816.5
2018-Jan-06 00:30N 50°31' E 000°02'815.4
2018-Jan-06 00:00N 50°32' E 000°14'815.8
2018-Jan-05 23:30N 50°35' E 000°26'816.2
2018-Jan-05 23:00N 50°38' E 000°38'816.6
2018-Jan-05 22:30N 50°42' E 000°49'816.8
2018-Jan-05 22:00N 50°48' E 000°59'917.1
2018-Jan-05 21:30N 50°54' E 001°09'917.9
2018-Jan-05 20:59N 50°60' E 001°20'918.9
2018-Jan-05 20:30N 51°05' E 001°31'918.5
2018-Jan-05 20:00N 51°11' E 001°43'918.0
2018-Jan-05 19:30N 51°19' E 001°51'917.6
2018-Jan-05 19:01N 51°26' E 001°58'816.9
2018-Jan-05 18:30N 51°33' E 002°06'816.6
2018-Jan-05 18:00N 51°40' E 002°15'9016.4
2018-Jan-05 12:31N 52°50' E 003°47'017.0
2018-Jan-05 12:30N 52°50' E 003°47'1117.5
2018-Jan-05 11:51N 52°58' E 004°00'617.7
2018-Jan-05 11:30N 53°02' E 004°08'3416.9
2018-Jan-05 09:31N 53°29' E 004°42'016.0
2018-Jan-05 09:31N 53°29' E 004°42'815.6
2018-Jan-05 09:00N 53°32' E 004°55'715.3
2018-Jan-05 08:31N 53°35' E 005°06'9415.6
2018-Jan-05 02:27N 53°56' E 007°42'711.7
2018-Jan-05 01:52N 53°53' E 007°52'511.3
2018-Jan-05 01:27N 53°51' E 007°59'614.1
2018-Jan-05 01:00N 53°48' E 008°08'713.4
2018-Jan-05 00:30N 53°43' E 008°16'713.1
2018-Jan-05 00:00N 53°39' E 008°25'611.3
2018-Jan-04 23:30N 53°35' E 008°32'1 2.5
2018-Jan-04 23:00N 53°34' E 008°33'0 0.4
2018-Jan-04 22:30N 53°34' E 008°33'0 0.7
2018-Jan-04 21:59N 53°35' E 008°33'0 0.0
2018-Jan-04 21:29N 53°35' E 008°33'0 0.0
2018-Jan-04 20:59N 53°35' E 008°33'0 0.0
2018-Jan-04 20:29N 53°35' E 008°33'0 0.0
2018-Jan-04 19:59N 53°35' E 008°33'0 0.0
2018-Jan-04 19:29N 53°35' E 008°33'0 0.0
2018-Jan-04 18:59N 53°35' E 008°33'0 0.0
2018-Jan-04 18:29N 53°35' E 008°33'0 0.0
2018-Jan-04 17:59N 53°35' E 008°33'0 0.0
2018-Jan-04 17:29N 53°35' E 008°33'0 0.0
2018-Jan-04 16:59N 53°35' E 008°33'0 0.0
2018-Jan-04 16:29N 53°35' E 008°33'0 0.0
2018-Jan-04 15:56N 53°35' E 008°33'0 0.0
2018-Jan-04 15:29N 53°35' E 008°33'0 0.0
2018-Jan-04 14:59N 53°35' E 008°33'0 0.0
2018-Jan-04 14:29N 53°35' E 008°33'0 0.0
2018-Jan-04 13:59N 53°35' E 008°33'0 0.0
2018-Jan-04 13:29N 53°35' E 008°33'0 0.0
2018-Jan-04 12:59N 53°35' E 008°33'0 0.0
2018-Jan-04 12:29N 53°35' E 008°33'0 0.0
2018-Jan-04 11:59N 53°35' E 008°33'0 0.0
2018-Jan-04 11:29N 53°35' E 008°33'0 0.0
2018-Jan-04 10:59N 53°35' E 008°33'0 0.0
2018-Jan-04 10:29N 53°35' E 008°33'0 0.0
2018-Jan-04 09:59N 53°35' E 008°33'0 0.0
2018-Jan-04 09:29N 53°35' E 008°33'0 0.0
2018-Jan-04 08:59N 53°35' E 008°33'0 0.0
2018-Jan-04 08:29N 53°35' E 008°33'0 0.0
2018-Jan-04 07:59N 53°35' E 008°33'0 0.0
2018-Jan-04 07:29N 53°35' E 008°33'0 0.0
2018-Jan-04 06:59N 53°35' E 008°33'0 0.0
2018-Jan-04 06:29N 53°35' E 008°33'0 0.0
2018-Jan-04 05:59N 53°35' E 008°33'0 0.0
2018-Jan-04 05:29N 53°35' E 008°33'0 0.0
2018-Jan-04 04:59N 53°35' E 008°33'0 0.0
2018-Jan-04 04:29N 53°35' E 008°33'0 0.0
2018-Jan-04 03:59N 53°35' E 008°33'0 0.0
2018-Jan-04 03:29N 53°35' E 008°33'0 0.0
2018-Jan-04 02:59N 53°35' E 008°33'0 0.0
2018-Jan-04 02:29N 53°35' E 008°33'0 0.0
2018-Jan-04 01:59N 53°35' E 008°33'0 0.0
2018-Jan-04 01:29N 53°35' E 008°33'0 0.0
2018-Jan-04 00:59N 53°35' E 008°33'0 0.0
2018-Jan-04 00:29N 53°35' E 008°33'0 0.0
2018-Jan-03 23:59N 53°35' E 008°33'0 0.0
2018-Jan-03 23:29N 53°35' E 008°33'0 0.0
2018-Jan-03 22:59N 53°35' E 008°33'0 0.0
2018-Jan-03 22:29N 53°35' E 008°33'0 0.0
2018-Jan-03 21:59N 53°35' E 008°33'0 0.0
2018-Jan-03 21:29N 53°35' E 008°33'0 0.0
2018-Jan-03 20:59N 53°35' E 008°33'0 0.0
2018-Jan-03 20:29N 53°35' E 008°33'0 0.0
2018-Jan-03 19:59N 53°35' E 008°33'0 0.0
2018-Jan-03 19:29N 53°35' E 008°33'0 0.0
2018-Jan-03 18:59N 53°35' E 008°33'0 0.0
2018-Jan-03 18:29N 53°35' E 008°33'0 0.0
2018-Jan-03 17:59N 53°35' E 008°33'0 0.0
2018-Jan-03 17:29N 53°35' E 008°33'0 0.0
2018-Jan-03 16:59N 53°35' E 008°33'0 0.0
2018-Jan-03 16:29N 53°35' E 008°33'0 0.0
2018-Jan-03 15:59N 53°35' E 008°33'0 0.0
2018-Jan-03 15:29N 53°35' E 008°33'0 0.0
2018-Jan-03 14:59N 53°35' E 008°33'0 0.0
2018-Jan-03 14:29N 53°35' E 008°33'0 0.0
2018-Jan-03 13:59N 53°35' E 008°33'0 0.0
2018-Jan-03 13:29N 53°35' E 008°33'0 0.0
2018-Jan-03 12:59N 53°35' E 008°33'0 0.0
2018-Jan-03 12:29N 53°35' E 008°33'0 0.0
2018-Jan-03 11:59N 53°35' E 008°33'0 0.0
2018-Jan-03 11:29N 53°35' E 008°33'0 0.7
2018-Jan-03 11:00N 53°34' E 008°33'0 0.3
2018-Jan-03 10:30N 53°34' E 008°33'1 1.4
2018-Jan-03 10:00N 53°35' E 008°32'611.9
2018-Jan-03 09:31N 53°39' E 008°25'816.2
2018-Jan-03 09:01N 53°44' E 008°15'918.6
2018-Jan-03 08:30N 53°50' E 008°03'612.7
2018-Jan-03 08:00N 53°52' E 007°52'2 1.9
2018-Jan-03 07:11N 53°51' E 007°50'1 3.2
2018-Jan-03 07:00N 53°51' E 007°51'1 2.4
2018-Jan-03 06:30N 53°52' E 007°50'4 8.4
2018-Jan-03 06:00N 53°53' E 007°43'4 8.2
2018-Jan-03 05:30N 53°54' E 007°36'7711.4
2018-Jan-02 22:46N 53°35' E 005°30'415.2
2018-Jan-02 22:30N 53°33' E 005°24'815.7
2018-Jan-02 22:00N 53°30' E 005°12'816.5
2018-Jan-02 21:30N 53°28' E 004°59'816.4
2018-Jan-02 21:01N 53°25' E 004°46'917.1
2018-Jan-02 20:30N 53°17' E 004°39'917.9
2018-Jan-02 20:00N 53°09' E 004°32'917.6
2018-Jan-02 19:30N 53°02' E 004°23'917.7
2018-Jan-02 19:01N 52°54' E 004°17'917.8
2018-Jan-02 18:30N 52°46' E 004°10'918.1
2018-Jan-02 18:00N 52°40' E 004°00'918.2
2018-Jan-02 17:30N 52°33' E 003°50'918.1
2018-Jan-02 16:59N 52°27' E 003°39'918.2
2018-Jan-02 16:29N 52°21' E 003°27'918.8
2018-Jan-02 15:59N 52°14' E 003°17'1019.4
2018-Jan-02 15:29N 52°07' E 003°06'1019.9
2018-Jan-02 14:59N 51°59' E 002°55'1020.6
2018-Jan-02 14:29N 51°51' E 002°44'1020.7
2018-Jan-02 13:59N 51°44' E 002°33'1120.7
2018-Jan-02 13:29N 51°36' E 002°22'1021.1
2018-Jan-02 12:59N 51°28' E 002°11'919.2
2018-Jan-02 12:30N 51°19' E 002°08'1019.2
2018-Jan-02 12:01N 51°12' E 001°58'1121.4
2018-Jan-02 11:31N 51°05' E 001°45'1122.1
2018-Jan-02 11:00N 50°57' E 001°33'1220.7
2018-Jan-02 10:25N 50°46' E 001°24'4515.6
2018-Jan-02 07:30N 50°22' E 000°23'510.2
2018-Jan-02 07:00N 50°21' E 000°16'510.6
2018-Jan-02 06:30N 50°19' E 000°08'510.1
2018-Jan-02 06:00N 50°18' E 000°00'5 9.5
2018-Jan-02 05:28N 50°17' W 000°08'9 9.1
2018-Jan-02 04:30N 50°22' W 000°19'4 8.6
2018-Jan-02 04:00N 50°24' W 000°25'6 8.2
2018-Jan-02 03:18N 50°27' W 000°33'2 7.8
2018-Jan-02 02:59N 50°28' W 000°36'4 7.6
2018-Jan-02 02:30N 50°29' W 000°41'4 7.7
2018-Jan-02 02:00N 50°31' W 000°47'4 7.5
2018-Jan-02 01:30N 50°33' W 000°52'4 7.9
2018-Jan-02 01:00N 50°36' W 000°57'611.3
2018-Jan-02 00:30N 50°41' W 000°57'713.2
2018-Jan-02 00:00N 50°45' W 001°06'713.9
2018-Jan-01 23:31N 50°46' W 001°16'4 8.5
2018-Jan-01 23:00N 50°50' W 001°19'4 8.5
2018-Jan-01 22:30N 50°53' W 001°24'0 0.7
2018-Jan-01 22:01N 50°54' W 001°24'0 0.0
2018-Jan-01 21:30N 50°54' W 001°24'0 0.0
2018-Jan-01 21:00N 50°54' W 001°24'0 0.0
2018-Jan-01 20:28N 50°54' W 001°24'0 0.0
2018-Jan-01 19:52N 50°54' W 001°24'0 0.0
2018-Jan-01 19:28N 50°54' W 001°24'0 0.0
2018-Jan-01 18:58N 50°54' W 001°24'0 0.0
2018-Jan-01 18:25N 50°54' W 001°24'0 0.0
2018-Jan-01 17:58N 50°54' W 001°24'0 0.0
2018-Jan-01 17:28N 50°54' W 001°24'0 0.0
2018-Jan-01 14:58N 50°54' W 001°24'  
Track history (hours):
 
Tides and Currents Weather Stations Pressure Air Temp Water Temp Dewpoint Dewpoint Depression Visibility Wind Speed Wind Dir Waves Ship Positions

Tugela

Last reported at 2018-Jan-11 14:57 UTC. Time now 2018-Jan-21 12:44 UTC.
Position N 27°41' W 015°11'.
Warning: this ship's position is 9 days out of date.

Length 229 m; draft 10.9 m.

Type: Cargo ship. MMSI: 248264000.

Date/timePositionNaut miles runAvg speedWind from/ knotsBaromVisibWave heightAir tempDewpointWater temp
2018-Jan-11 14:57N 27°41' W 015°11'818.3
2018-Jan-11 14:30N 27°48' W 015°08'918.4
2018-Jan-11 14:00N 27°57' W 015°04'918.3
2018-Jan-11 13:30N 28°05' W 015°00'918.0
2018-Jan-11 13:00N 28°14' W 014°58'918.2
2018-Jan-11 12:30N 28°23' W 014°55'918.1
2018-Jan-11 12:00N 28°31' W 014°52'918.3
2018-Jan-11 11:30N 28°40' W 014°48'1218.0
2018-Jan-11 10:52N 28°51' W 014°44'8 6.9
2018-Jan-11 09:46N 28°58' W 014°43'711.7
2018-Jan-11 09:12N 29°05' W 014°42'1117.8
2018-Jan-11 08:33N 29°16' W 014°39'417.4
2018-Jan-11 08:19N 29°20' W 014°37'1817.9
2018-Jan-11 07:18N 29°38' W 014°32'  
2018-Jan-08 20:25N 43°49' W 005°54'817.9
2018-Jan-08 19:56N 43°48' W 005°43'917.9
2018-Jan-08 19:27N 43°47' W 005°31'917.9
2018-Jan-08 18:55N 43°46' W 005°18'1017.6
2018-Jan-08 18:23N 43°45' W 005°04'717.6
2018-Jan-08 18:00N 43°44' W 004°55'4117.1
2018-Jan-08 15:38N 43°39' W 003°59'217.4
2018-Jan-08 15:30N 43°38' W 003°57'10 0.6
2018-Jan-07 22:03N 43°33' W 003°46'0 7.5
2018-Jan-07 22:01N 43°33' W 003°46'4 7.3
2018-Jan-07 21:30N 43°36' W 003°48'7 4.1
2018-Jan-07 19:41N 43°44' W 003°49'36110.5
2018-Jan-06 09:16N 49°44' W 003°36'615.6
2018-Jan-06 08:52N 49°47' W 003°28'615.6
2018-Jan-06 08:31N 49°51' W 003°21'815.6
2018-Jan-06 08:00N 49°55' W 003°11'815.9
2018-Jan-06 07:31N 49°58' W 002°60'816.6
2018-Jan-06 07:00N 50°01' W 002°47'816.7
2018-Jan-06 06:30N 50°04' W 002°35'6217.6
2018-Jan-06 02:59N 50°21' W 001°02'2317.2
2018-Jan-06 01:38N 50°26' W 000°26'217.2
2018-Jan-06 01:30N 50°27' W 000°23'917.1
2018-Jan-06 01:00N 50°29' W 000°10'816.5
2018-Jan-06 00:30N 50°31' E 000°02'815.4
2018-Jan-06 00:00N 50°32' E 000°14'815.8
2018-Jan-05 23:30N 50°35' E 000°26'816.2
2018-Jan-05 23:00N 50°38' E 000°38'816.6
2018-Jan-05 22:30N 50°42' E 000°49'816.8
2018-Jan-05 22:00N 50°48' E 000°59'917.1
2018-Jan-05 21:30N 50°54' E 001°09'917.9
2018-Jan-05 20:59N 50°60' E 001°20'918.9
2018-Jan-05 20:30N 51°05' E 001°31'918.5
2018-Jan-05 20:00N 51°11' E 001°43'918.0
2018-Jan-05 19:30N 51°19' E 001°51'917.6
2018-Jan-05 19:01N 51°26' E 001°58'816.9
2018-Jan-05 18:30N 51°33' E 002°06'816.6
2018-Jan-05 18:00N 51°40' E 002°15'9016.4
2018-Jan-05 12:31N 52°50' E 003°47'017.0
2018-Jan-05 12:30N 52°50' E 003°47'1117.5
2018-Jan-05 11:51N 52°58' E 004°00'617.7
2018-Jan-05 11:30N 53°02' E 004°08'3416.9
2018-Jan-05 09:31N 53°29' E 004°42'016.0
2018-Jan-05 09:31N 53°29' E 004°42'815.6
2018-Jan-05 09:00N 53°32' E 004°55'715.3
2018-Jan-05 08:31N 53°35' E 005°06'9415.6
2018-Jan-05 02:27N 53°56' E 007°42'711.7
2018-Jan-05 01:52N 53°53' E 007°52'511.3
2018-Jan-05 01:27N 53°51' E 007°59'614.1
2018-Jan-05 01:00N 53°48' E 008°08'713.4
2018-Jan-05 00:30N 53°43' E 008°16'713.1
2018-Jan-05 00:00N 53°39' E 008°25'611.3
2018-Jan-04 23:30N 53°35' E 008°32'1 2.5
2018-Jan-04 23:00N 53°34' E 008°33'0 0.4
2018-Jan-04 22:30N 53°34' E 008°33'0 0.7
2018-Jan-04 21:59N 53°35' E 008°33'0 0.0
2018-Jan-04 21:29N 53°35' E 008°33'0 0.0
2018-Jan-04 20:59N 53°35' E 008°33'0 0.0
2018-Jan-04 20:29N 53°35' E 008°33'0 0.0
2018-Jan-04 19:59N 53°35' E 008°33'0 0.0
2018-Jan-04 19:29N 53°35' E 008°33'0 0.0
2018-Jan-04 18:59N 53°35' E 008°33'0 0.0
2018-Jan-04 18:29N 53°35' E 008°33'0 0.0
2018-Jan-04 17:59N 53°35' E 008°33'0 0.0
2018-Jan-04 17:29N 53°35' E 008°33'0 0.0
2018-Jan-04 16:59N 53°35' E 008°33'0 0.0
2018-Jan-04 16:29N 53°35' E 008°33'0 0.0
2018-Jan-04 15:56N 53°35' E 008°33'0 0.0
2018-Jan-04 15:29N 53°35' E 008°33'0 0.0
2018-Jan-04 14:59N 53°35' E 008°33'0 0.0
2018-Jan-04 14:29N 53°35' E 008°33'0 0.0
2018-Jan-04 13:59N 53°35' E 008°33'0 0.0
2018-Jan-04 13:29N 53°35' E 008°33'0 0.0
2018-Jan-04 12:59N 53°35' E 008°33'0 0.0
2018-Jan-04 12:29N 53°35' E 008°33'0 0.0
2018-Jan-04 11:59N 53°35' E 008°33'0 0.0
2018-Jan-04 11:29N 53°35' E 008°33'0 0.0
2018-Jan-04 10:59N 53°35' E 008°33'0 0.0
2018-Jan-04 10:29N 53°35' E 008°33'0 0.0
2018-Jan-04 09:59N 53°35' E 008°33'0 0.0
2018-Jan-04 09:29N 53°35' E 008°33'0 0.0
2018-Jan-04 08:59N 53°35' E 008°33'0 0.0
2018-Jan-04 08:29N 53°35' E 008°33'0 0.0
2018-Jan-04 07:59N 53°35' E 008°33'0 0.0
2018-Jan-04 07:29N 53°35' E 008°33'0 0.0
2018-Jan-04 06:59N 53°35' E 008°33'0 0.0
2018-Jan-04 06:29N 53°35' E 008°33'0 0.0
2018-Jan-04 05:59N 53°35' E 008°33'0 0.0
2018-Jan-04 05:29N 53°35' E 008°33'0 0.0
2018-Jan-04 04:59N 53°35' E 008°33'0 0.0
2018-Jan-04 04:29N 53°35' E 008°33'0 0.0
2018-Jan-04 03:59N 53°35' E 008°33'0 0.0
2018-Jan-04 03:29N 53°35' E 008°33'0 0.0
2018-Jan-04 02:59N 53°35' E 008°33'0 0.0
2018-Jan-04 02:29N 53°35' E 008°33'0 0.0
2018-Jan-04 01:59N 53°35' E 008°33'0 0.0
2018-Jan-04 01:29N 53°35' E 008°33'0 0.0
2018-Jan-04 00:59N 53°35' E 008°33'0 0.0
2018-Jan-04 00:29N 53°35' E 008°33'0 0.0
2018-Jan-03 23:59N 53°35' E 008°33'0 0.0
2018-Jan-03 23:29N 53°35' E 008°33'0 0.0
2018-Jan-03 22:59N 53°35' E 008°33'0 0.0
2018-Jan-03 22:29N 53°35' E 008°33'0 0.0
2018-Jan-03 21:59N 53°35' E 008°33'0 0.0
2018-Jan-03 21:29N 53°35' E 008°33'0 0.0
2018-Jan-03 20:59N 53°35' E 008°33'0 0.0
2018-Jan-03 20:29N 53°35' E 008°33'0 0.0
2018-Jan-03 19:59N 53°35' E 008°33'0 0.0
2018-Jan-03 19:29N 53°35' E 008°33'0 0.0
2018-Jan-03 18:59N 53°35' E 008°33'0 0.0
2018-Jan-03 18:29N 53°35' E 008°33'0 0.0
2018-Jan-03 17:59N 53°35' E 008°33'0 0.0
2018-Jan-03 17:29N 53°35' E 008°33'0 0.0
2018-Jan-03 16:59N 53°35' E 008°33'0 0.0
2018-Jan-03 16:29N 53°35' E 008°33'0 0.0
2018-Jan-03 15:59N 53°35' E 008°33'0 0.0
2018-Jan-03 15:29N 53°35' E 008°33'0 0.0
2018-Jan-03 14:59N 53°35' E 008°33'0 0.0
2018-Jan-03 14:29N 53°35' E 008°33'0 0.0
2018-Jan-03 13:59N 53°35' E 008°33'0 0.0
2018-Jan-03 13:29N 53°35' E 008°33'0 0.0
2018-Jan-03 12:59N 53°35' E 008°33'0 0.0
2018-Jan-03 12:29N 53°35' E 008°33'0 0.0
2018-Jan-03 11:59N 53°35' E 008°33'0 0.0
2018-Jan-03 11:29N 53°35' E 008°33'0 0.7
2018-Jan-03 11:00N 53°34' E 008°33'0 0.3
2018-Jan-03 10:30N 53°34' E 008°33'1 1.4
2018-Jan-03 10:00N 53°35' E 008°32'611.9
2018-Jan-03 09:31N 53°39' E 008°25'816.2
2018-Jan-03 09:01N 53°44' E 008°15'918.6
2018-Jan-03 08:30N 53°50' E 008°03'612.7
2018-Jan-03 08:00N 53°52' E 007°52'2 1.9
2018-Jan-03 07:11N 53°51' E 007°50'1 3.2
2018-Jan-03 07:00N 53°51' E 007°51'1 2.4
2018-Jan-03 06:30N 53°52' E 007°50'4 8.4
2018-Jan-03 06:00N 53°53' E 007°43'4 8.2
2018-Jan-03 05:30N 53°54' E 007°36'7711.4
2018-Jan-02 22:46N 53°35' E 005°30'415.2
2018-Jan-02 22:30N 53°33' E 005°24'815.7
2018-Jan-02 22:00N 53°30' E 005°12'816.5
2018-Jan-02 21:30N 53°28' E 004°59'816.4
2018-Jan-02 21:01N 53°25' E 004°46'917.1
2018-Jan-02 20:30N 53°17' E 004°39'917.9
2018-Jan-02 20:00N 53°09' E 004°32'917.6
2018-Jan-02 19:30N 53°02' E 004°23'917.7
2018-Jan-02 19:01N 52°54' E 004°17'917.8
2018-Jan-02 18:30N 52°46' E 004°10'918.1
2018-Jan-02 18:00N 52°40' E 004°00'918.2
2018-Jan-02 17:30N 52°33' E 003°50'918.1
2018-Jan-02 16:59N 52°27' E 003°39'918.2
2018-Jan-02 16:29N 52°21' E 003°27'918.8
2018-Jan-02 15:59N 52°14' E 003°17'1019.4
2018-Jan-02 15:29N 52°07' E 003°06'1019.9
2018-Jan-02 14:59N 51°59' E 002°55'1020.6
2018-Jan-02 14:29N 51°51' E 002°44'1020.7
2018-Jan-02 13:59N 51°44' E 002°33'1120.7
2018-Jan-02 13:29N 51°36' E 002°22'1021.1
2018-Jan-02 12:59N 51°28' E 002°11'919.2
2018-Jan-02 12:30N 51°19' E 002°08'1019.2
2018-Jan-02 12:01N 51°12' E 001°58'1121.4
2018-Jan-02 11:31N 51°05' E 001°45'1122.1
2018-Jan-02 11:00N 50°57' E 001°33'1220.7
2018-Jan-02 10:25N 50°46' E 001°24'4515.6
2018-Jan-02 07:30N 50°22' E 000°23'510.2
2018-Jan-02 07:00N 50°21' E 000°16'510.6
2018-Jan-02 06:30N 50°19' E 000°08'510.1
2018-Jan-02 06:00N 50°18' E 000°00'5 9.5
2018-Jan-02 05:28N 50°17' W 000°08'9 9.1
2018-Jan-02 04:30N 50°22' W 000°19'4 8.6
2018-Jan-02 04:00N 50°24' W 000°25'6 8.2
2018-Jan-02 03:18N 50°27' W 000°33'2 7.8
2018-Jan-02 02:59N 50°28' W 000°36'4 7.6
2018-Jan-02 02:30N 50°29' W 000°41'4 7.7
2018-Jan-02 02:00N 50°31' W 000°47'4 7.5
2018-Jan-02 01:30N 50°33' W 000°52'4 7.9
2018-Jan-02 01:00N 50°36' W 000°57'611.3
2018-Jan-02 00:30N 50°41' W 000°57'713.2
2018-Jan-02 00:00N 50°45' W 001°06'713.9
2018-Jan-01 23:31N 50°46' W 001°16'4 8.5
2018-Jan-01 23:00N 50°50' W 001°19'4 8.5
2018-Jan-01 22:30N 50°53' W 001°24'0 0.7
2018-Jan-01 22:01N 50°54' W 001°24'0 0.0
2018-Jan-01 21:30N 50°54' W 001°24'0 0.0
2018-Jan-01 21:00N 50°54' W 001°24'0 0.0
2018-Jan-01 20:28N 50°54' W 001°24'0 0.0
2018-Jan-01 19:52N 50°54' W 001°24'0 0.0
2018-Jan-01 19:28N 50°54' W 001°24'0 0.0
2018-Jan-01 18:58N 50°54' W 001°24'0 0.0
2018-Jan-01 18:25N 50°54' W 001°24'0 0.0
2018-Jan-01 17:58N 50°54' W 001°24'0 0.0
2018-Jan-01 17:28N 50°54' W 001°24'0 0.0
2018-Jan-01 14:58N 50°54' W 001°24'  

Dump ship's entire track history